sensor_id;sensor_type;location;lat;lon;timestamp;pressure;altitude;pressure_sealevel;temperature;humidity
76998;BME280;65930;48.874;10.734;2024-02-15T00:00:04;96554.56;;;7.95;100.00
76998;BME280;65930;48.874;10.734;2024-02-15T00:02:35;96553.41;;;7.96;100.00
76998;BME280;65930;48.874;10.734;2024-02-15T00:05:03;96549.03;;;7.95;100.00
76998;BME280;65930;48.874;10.734;2024-02-15T00:07:31;96546.28;;;7.95;100.00
76998;BME280;65930;48.874;10.734;2024-02-15T00:10:01;96552.59;;;7.96;100.00
76998;BME280;65930;48.874;10.734;2024-02-15T00:12:31;96550.25;;;7.98;100.00
76998;BME280;65930;48.874;10.734;2024-02-15T00:15:00;96550.25;;;7.98;100.00
76998;BME280;65930;48.874;10.734;2024-02-15T00:17:28;96543.53;;;7.95;100.00
76998;BME280;65930;48.874;10.734;2024-02-15T00:19:57;96534.09;;;7.96;100.00
76998;BME280;65930;48.874;10.734;2024-02-15T00:22:26;96538.84;;;8.00;100.00
76998;BME280;65930;48.874;10.734;2024-02-15T00:24:54;96533.78;;;8.02;100.00
76998;BME280;65930;48.874;10.734;2024-02-15T00:27:22;96544.50;;;8.07;100.00
76998;BME280;65930;48.874;10.734;2024-02-15T00:29:50;96545.59;;;8.02;100.00
76998;BME280;65930;48.874;10.734;2024-02-15T00:32:19;96548.81;;;8.08;100.00
76998;BME280;65930;48.874;10.734;2024-02-15T00:34:48;96541.66;;;8.03;100.00
76998;BME280;65930;48.874;10.734;2024-02-15T00:37:16;96533.88;;;8.09;100.00
76998;BME280;65930;48.874;10.734;2024-02-15T00:39:44;96537.78;;;8.08;100.00
76998;BME280;65930;48.874;10.734;2024-02-15T00:42:12;96535.91;;;8.12;100.00
76998;BME280;65930;48.874;10.734;2024-02-15T00:44:42;96529.81;;;8.03;100.00
76998;BME280;65930;48.874;10.734;2024-02-15T00:47:11;96540.09;;;8.02;100.00
76998;BME280;65930;48.874;10.734;2024-02-15T00:49:41;96531.03;;;8.02;100.00
76998;BME280;65930;48.874;10.734;2024-02-15T00:52:09;96532.69;;;8.10;100.00
76998;BME280;65930;48.874;10.734;2024-02-15T00:54:37;96532.34;;;8.11;100.00
76998;BME280;65930;48.874;10.734;2024-02-15T00:57:05;96524.41;;;8.10;100.00
76998;BME280;65930;48.874;10.734;2024-02-15T00:59:33;96520.06;;;8.09;100.00
76998;BME280;65930;48.874;10.734;2024-02-15T01:02:03;96515.88;;;8.18;100.00
76998;BME280;65930;48.874;10.734;2024-02-15T01:04:32;96517.09;;;8.21;100.00
76998;BME280;65930;48.874;10.734;2024-02-15T01:07:01;96511.19;;;8.22;100.00
76998;BME280;65930;48.874;10.734;2024-02-15T01:09:29;96513.22;;;8.25;100.00
76998;BME280;65930;48.874;10.734;2024-02-15T01:11:57;96511.97;;;8.23;100.00
76998;BME280;65930;48.874;10.734;2024-02-15T01:14:25;96519.50;;;8.26;100.00
76998;BME280;65930;48.874;10.734;2024-02-15T01:16:56;96526.94;;;8.22;100.00
76998;BME280;65930;48.874;10.734;2024-02-15T01:19:24;96528.22;;;8.28;100.00
76998;BME280;65930;48.874;10.734;2024-02-15T01:21:52;96528.59;;;8.26;100.00
76998;BME280;65930;48.874;10.734;2024-02-15T01:24:22;96528.97;;;8.25;100.00
76998;BME280;65930;48.874;10.734;2024-02-15T01:26:52;96520.69;;;8.25;100.00
76998;BME280;65930;48.874;10.734;2024-02-15T01:29:21;96527.75;;;8.22;100.00
76998;BME280;65930;48.874;10.734;2024-02-15T01:31:49;96537.25;;;8.25;100.00
76998;BME280;65930;48.874;10.734;2024-02-15T01:34:17;96540.38;;;8.23;100.00
76998;BME280;65930;48.874;10.734;2024-02-15T01:36:47;96534.91;;;8.27;100.00
76998;BME280;65930;48.874;10.734;2024-02-15T01:39:16;96524.97;;;8.22;100.00
76998;BME280;65930;48.874;10.734;2024-02-15T01:41:48;96527.34;;;8.20;100.00
76998;BME280;65930;48.874;10.734;2024-02-15T01:44:18;96526.16;;;8.21;100.00
76998;BME280;65930;48.874;10.734;2024-02-15T01:46:48;96524.19;;;8.22;100.00
76998;BME280;65930;48.874;10.734;2024-02-15T01:49:19;96525.38;;;8.21;100.00
76998;BME280;65930;48.874;10.734;2024-02-15T01:51:51;96517.47;;;8.19;100.00
76998;BME280;65930;48.874;10.734;2024-02-15T01:54:20;96520.59;;;8.18;100.00
76998;BME280;65930;48.874;10.734;2024-02-15T01:56:50;96519.06;;;8.20;100.00
76998;BME280;65930;48.874;10.734;2024-02-15T01:59:22;96517.09;;;8.21;100.00
76998;BME280;65930;48.874;10.734;2024-02-15T02:01:51;96519.09;;;8.24;100.00
76998;BME280;65930;48.874;10.734;2024-02-15T02:04:19;96514.34;;;8.21;100.00
76998;BME280;65930;48.874;10.734;2024-02-15T02:06:47;96509.19;;;8.19;100.00
76998;BME280;65930;48.874;10.734;2024-02-15T02:09:16;96509.56;;;8.18;100.00
76998;BME280;65930;48.874;10.734;2024-02-15T02:11:45;96516.66;;;8.19;100.00
76998;BME280;65930;48.874;10.734;2024-02-15T02:14:16;96507.59;;;8.18;100.00
76998;BME280;65930;48.874;10.734;2024-02-15T02:16:47;96507.53;;;8.15;100.00
76998;BME280;65930;48.874;10.734;2024-02-15T02:19:16;96502.78;;;8.12;100.00
76998;BME280;65930;48.874;10.734;2024-02-15T02:21:44;96503.94;;;8.11;100.00
76998;BME280;65930;48.874;10.734;2024-02-15T02:24:14;96500.03;;;8.12;100.00
76998;BME280;65930;48.874;10.734;2024-02-15T02:26:47;96503.16;;;8.10;100.00
76998;BME280;65930;48.874;10.734;2024-02-15T02:29:16;96500.03;;;8.12;100.00
76998;BME280;65930;48.874;10.734;2024-02-15T02:31:45;96494.50;;;8.12;100.00
76998;BME280;65930;48.874;10.734;2024-02-15T02:34:13;96489.72;;;8.09;100.00
76998;BME280;65930;48.874;10.734;2024-02-15T02:36:43;96497.19;;;8.08;100.00
76998;BME280;65930;48.874;10.734;2024-02-15T02:39:12;96492.50;;;8.12;100.00
76998;BME280;65930;48.874;10.734;2024-02-15T02:41:40;96496.47;;;8.11;100.00
76998;BME280;65930;48.874;10.734;2024-02-15T02:44:10;96488.50;;;8.06;100.00
76998;BME280;65930;48.874;10.734;2024-02-15T02:46:38;96486.44;;;8.00;100.00
76998;BME280;65930;48.874;10.734;2024-02-15T02:49:07;96488.03;;;8.01;100.00
76998;BME280;65930;48.874;10.734;2024-02-15T02:51:35;96487.19;;;7.96;100.00
76998;BME280;65930;48.874;10.734;2024-02-15T02:54:03;96503.00;;;8.00;100.00
76998;BME280;65930;48.874;10.734;2024-02-15T02:56:33;96494.31;;;7.97;100.00
76998;BME280;65930;48.874;10.734;2024-02-15T02:59:01;96497.94;;;8.05;100.00
76998;BME280;65930;48.874;10.734;2024-02-15T03:01:31;96501.50;;;8.06;100.00
76998;BME280;65930;48.874;10.734;2024-02-15T03:03:59;96496.84;;;8.10;100.00
76998;BME280;65930;48.874;10.734;2024-02-15T03:06:27;96500.38;;;8.10;100.00
76998;BME280;65930;48.874;10.734;2024-02-15T03:08:56;96482.25;;;8.09;100.00
76998;BME280;65930;48.874;10.734;2024-02-15T03:11:24;96499.16;;;8.08;100.00
76998;BME280;65930;48.874;10.734;2024-02-15T03:13:52;96496.00;;;8.06;100.00
76998;BME280;65930;48.874;10.734;2024-02-15T03:16:22;96488.88;;;8.05;100.00
76998;BME280;65930;48.874;10.734;2024-02-15T03:18:53;96494.34;;;8.01;100.00
76998;BME280;65930;48.874;10.734;2024-02-15T03:21:21;96498.31;;;8.04;100.00
76998;BME280;65930;48.874;10.734;2024-02-15T03:23:49;96490.88;;;8.08;100.00
76998;BME280;65930;48.874;10.734;2024-02-15T03:26:28;96492.91;;;8.11;100.00
76998;BME280;65930;48.874;10.734;2024-02-15T03:28:57;96494.44;;;8.08;100.00
76998;BME280;65930;48.874;10.734;2024-02-15T03:31:24;96498.31;;;8.04;100.00
76998;BME280;65930;48.874;10.734;2024-02-15T03:33:56;96495.22;;;8.09;100.00
76998;BME280;65930;48.874;10.734;2024-02-15T03:36:24;96494.06;;;8.10;100.00
76998;BME280;65930;48.874;10.734;2024-02-15T03:38:58;96495.66;;;8.11;100.00
76998;BME280;65930;48.874;10.734;2024-02-15T03:41:27;96498.31;;;8.04;100.00
76998;BME280;65930;48.874;10.734;2024-02-15T03:43:59;96482.59;;;8.08;100.00
76998;BME280;65930;48.874;10.734;2024-02-15T03:46:27;96493.63;;;8.08;100.00
76998;BME280;65930;48.874;10.734;2024-02-15T03:48:56;96494.50;;;8.12;100.00
76998;BME280;65930;48.874;10.734;2024-02-15T03:51:25;96504.03;;;8.18;100.00
76998;BME280;65930;48.874;10.734;2024-02-15T03:53:53;96488.22;;;8.15;100.00
76998;BME280;65930;48.874;10.734;2024-02-15T03:56:21;96496.88;;;8.13;100.00
76998;BME280;65930;48.874;10.734;2024-02-15T03:58:49;96499.16;;;8.08;100.00
76998;BME280;65930;48.874;10.734;2024-02-15T04:01:18;96491.75;;;8.12;100.00
76998;BME280;65930;48.874;10.734;2024-02-15T04:03:46;96493.78;;;8.18;100.00
76998;BME280;65930;48.874;10.734;2024-02-15T04:06:15;96497.66;;;8.14;100.00
76998;BME280;65930;48.874;10.734;2024-02-15T04:08:43;96489.50;;;8.21;100.00
76998;BME280;65930;48.874;10.734;2024-02-15T04:11:11;96503.31;;;8.21;100.00
76998;BME280;65930;48.874;10.734;2024-02-15T04:13:40;96497.66;;;8.14;100.00
76998;BME280;65930;48.874;10.734;2024-02-15T04:16:09;96496.91;;;8.17;100.00
76998;BME280;65930;48.874;10.734;2024-02-15T04:18:37;96496.91;;;8.17;100.00
76998;BME280;65930;48.874;10.734;2024-02-15T04:21:05;96489.88;;;8.19;100.00
76998;BME280;65930;48.874;10.734;2024-02-15T04:23:35;96496.84;;;8.10;100.00
76998;BME280;65930;48.874;10.734;2024-02-15T04:26:03;96495.50;;;8.00;100.00
76998;BME280;65930;48.874;10.734;2024-02-15T04:28:31;96485.50;;;7.88;100.00
76998;BME280;65930;48.874;10.734;2024-02-15T04:31:00;96485.41;;;7.81;100.00
76998;BME280;65930;48.874;10.734;2024-02-15T04:33:28;96488.19;;;7.85;100.00
76998;BME280;65930;48.874;10.734;2024-02-15T04:35:56;96486.63;;;7.58;100.00
76998;BME280;65930;48.874;10.734;2024-02-15T04:38:27;96488.34;;;7.43;100.00
76998;BME280;65930;48.874;10.734;2024-02-15T04:40:56;96491.00;;;7.36;100.00
76998;BME280;65930;48.874;10.734;2024-02-15T04:43:26;96483.78;;;7.05;100.00
76998;BME280;65930;48.874;10.734;2024-02-15T04:45:56;96492.22;;;6.93;100.00
76998;BME280;65930;48.874;10.734;2024-02-15T04:48:25;96487.66;;;6.81;100.00
76998;BME280;65930;48.874;10.734;2024-02-15T04:50:54;96496.19;;;6.53;100.00
76998;BME280;65930;48.874;10.734;2024-02-15T04:53:26;96488.72;;;6.54;100.00
76998;BME280;65930;48.874;10.734;2024-02-15T04:55:58;96497.28;;;6.49;100.00
76998;BME280;65930;48.874;10.734;2024-02-15T04:58:27;96499.03;;;6.57;100.00
76998;BME280;65930;48.874;10.734;2024-02-15T05:00:55;96487.94;;;6.53;100.00
76998;BME280;65930;48.874;10.734;2024-02-15T05:03:26;96487.75;;;6.43;100.00
76998;BME280;65930;48.874;10.734;2024-02-15T05:05:55;96493.31;;;6.27;100.00
76998;BME280;65930;48.874;10.734;2024-02-15T05:08:23;96488.75;;;6.15;100.00
76998;BME280;65930;48.874;10.734;2024-02-15T05:10:52;96488.16;;;6.26;100.00
76998;BME280;65930;48.874;10.734;2024-02-15T05:13:25;96486.06;;;6.19;100.00
76998;BME280;65930;48.874;10.734;2024-02-15T05:15:53;96478.81;;;6.30;100.00
76998;BME280;65930;48.874;10.734;2024-02-15T05:18:21;96481.00;;;6.40;100.00
76998;BME280;65930;48.874;10.734;2024-02-15T05:20:49;96479.56;;;6.27;100.00
76998;BME280;65930;48.874;10.734;2024-02-15T05:23:17;96487.59;;;6.36;100.00
76998;BME280;65930;48.874;10.734;2024-02-15T05:25:45;96486.44;;;6.17;100.00
76998;BME280;65930;48.874;10.734;2024-02-15T05:28:13;96496.28;;;6.18;100.00
76998;BME280;65930;48.874;10.734;2024-02-15T05:30:43;96498.97;;;6.15;100.00
76998;BME280;65930;48.874;10.734;2024-02-15T05:33:11;96498.59;;;6.16;100.00
76998;BME280;65930;48.874;10.734;2024-02-15T05:35:39;96493.09;;;6.36;100.00
76998;BME280;65930;48.874;10.734;2024-02-15T05:38:08;96494.13;;;6.28;100.00
76998;BME280;65930;48.874;10.734;2024-02-15T05:40:38;96492.44;;;6.23;100.00
76998;BME280;65930;48.874;10.734;2024-02-15T05:43:06;96492.22;;;6.32;100.00
76998;BME280;65930;48.874;10.734;2024-02-15T05:45:34;96496.00;;;6.43;100.00
76998;BME280;65930;48.874;10.734;2024-02-15T05:48:06;96489.63;;;6.39;100.00
76998;BME280;65930;48.874;10.734;2024-02-15T05:50:35;96491.34;;;6.47;100.00
76998;BME280;65930;48.874;10.734;2024-02-15T05:53:04;96496.63;;;6.55;100.00
76998;BME280;65930;48.874;10.734;2024-02-15T05:55:34;96495.84;;;6.55;100.00
76998;BME280;65930;48.874;10.734;2024-02-15T05:58:04;96494.75;;;6.59;100.00
76998;BME280;65930;48.874;10.734;2024-02-15T06:00:35;96494.22;;;6.54;100.00
76998;BME280;65930;48.874;10.734;2024-02-15T06:03:07;96499.75;;;6.54;100.00
76998;BME280;65930;48.874;10.734;2024-02-15T06:05:36;96494.81;;;6.63;100.00
76998;BME280;65930;48.874;10.734;2024-02-15T06:08:05;96505.81;;;6.63;100.00
76998;BME280;65930;48.874;10.734;2024-02-15T06:10:33;96505.53;;;6.68;100.00
76998;BME280;65930;48.874;10.734;2024-02-15T06:13:01;96504.53;;;6.57;100.00
76998;BME280;65930;48.874;10.734;2024-02-15T06:15:29;96508.50;;;6.59;100.00
76998;BME280;65930;48.874;10.734;2024-02-15T06:17:57;96508.28;;;6.68;100.00
76998;BME280;65930;48.874;10.734;2024-02-15T06:20:27;96507.84;;;6.66;100.00
76998;BME280;65930;48.874;10.734;2024-02-15T06:22:57;96517.28;;;6.65;100.00
76998;BME280;65930;48.874;10.734;2024-02-15T06:25:25;96507.75;;;6.62;100.00
76998;BME280;65930;48.874;10.734;2024-02-15T06:27:53;96507.84;;;6.66;100.00
76998;BME280;65930;48.874;10.734;2024-02-15T06:30:26;96505.25;;;6.54;100.00
76998;BME280;65930;48.874;10.734;2024-02-15T06:33:11;96503.94;;;6.67;100.00
76998;BME280;65930;48.874;10.734;2024-02-15T06:35:58;96502.06;;;6.71;100.00
76998;BME280;65930;48.874;10.734;2024-02-15T06:38:44;96507.13;;;6.69;100.00
76998;BME280;65930;48.874;10.734;2024-02-15T06:41:30;96514.56;;;6.69;100.00
76998;BME280;65930;48.874;10.734;2024-02-15T06:43:58;96511.13;;;6.72;100.00
76998;BME280;65930;48.874;10.734;2024-02-15T06:46:26;96506.81;;;6.74;100.00
76998;BME280;65930;48.874;10.734;2024-02-15T06:48:54;96515.81;;;6.71;100.00
76998;BME280;65930;48.874;10.734;2024-02-15T06:51:23;96515.81;;;6.71;100.00
76998;BME280;65930;48.874;10.734;2024-02-15T06:53:51;96512.84;;;6.80;100.00
76998;BME280;65930;48.874;10.734;2024-02-15T06:56:22;96517.59;;;6.83;100.00
76998;BME280;65930;48.874;10.734;2024-02-15T06:58:51;96515.59;;;6.80;100.00
76998;BME280;65930;48.874;10.734;2024-02-15T07:01:20;96515.94;;;6.78;100.00
76998;BME280;65930;48.874;10.734;2024-02-15T07:03:48;96513.75;;;6.87;100.00
76998;BME280;65930;48.874;10.734;2024-02-15T07:06:17;96509.91;;;6.92;100.00
76998;BME280;65930;48.874;10.734;2024-02-15T07:08:49;96515.16;;;7.00;100.00
76998;BME280;65930;48.874;10.734;2024-02-15T07:11:19;96515.16;;;7.00;100.00
76998;BME280;65930;48.874;10.734;2024-02-15T07:13:48;96514.16;;;7.08;100.00
76998;BME280;65930;48.874;10.734;2024-02-15T07:16:19;96521.69;;;7.12;100.00
76998;BME280;65930;48.874;10.734;2024-02-15T07:18:47;96509.81;;;7.07;100.00
76998;BME280;65930;48.874;10.734;2024-02-15T07:21:15;96516.16;;;7.12;100.00
76998;BME280;65930;48.874;10.734;2024-02-15T07:23:46;96512.63;;;7.11;100.00
76998;BME280;65930;48.874;10.734;2024-02-15T07:26:15;96511.50;;;7.16;100.00
76998;BME280;65930;48.874;10.734;2024-02-15T07:28:45;96523.03;;;7.21;100.00
76998;BME280;65930;48.874;10.734;2024-02-15T07:31:13;96516.41;;;7.26;100.00
76998;BME280;65930;48.874;10.734;2024-02-15T07:33:41;96516.47;;;7.29;100.00
76998;BME280;65930;48.874;10.734;2024-02-15T07:36:10;96514.50;;;7.30;100.00
76998;BME280;65930;48.874;10.734;2024-02-15T07:38:39;96511.44;;;7.35;100.00
76998;BME280;65930;48.874;10.734;2024-02-15T07:41:07;96504.78;;;7.36;100.00
76998;BME280;65930;48.874;10.734;2024-02-15T07:43:37;96506.00;;;7.38;100.00
76998;BME280;65930;48.874;10.734;2024-02-15T07:46:06;96498.97;;;7.41;100.00
76998;BME280;65930;48.874;10.734;2024-02-15T07:48:34;96503.78;;;7.47;100.00
76998;BME280;65930;48.874;10.734;2024-02-15T07:51:02;96511.38;;;7.54;100.00
76998;BME280;65930;48.874;10.734;2024-02-15T07:53:30;96515.34;;;7.57;100.00
76998;BME280;65930;48.874;10.734;2024-02-15T07:55:58;96511.88;;;7.60;100.00
76998;BME280;65930;48.874;10.734;2024-02-15T07:58:26;96505.97;;;7.61;100.00
76998;BME280;65930;48.874;10.734;2024-02-15T08:00:55;96505.28;;;7.68;100.00
76998;BME280;65930;48.874;10.734;2024-02-15T08:03:24;96511.16;;;7.66;100.00
76998;BME280;65930;48.874;10.734;2024-02-15T08:05:53;96502.53;;;7.68;100.00
76998;BME280;65930;48.874;10.734;2024-02-15T08:08:22;96499.81;;;7.71;100.00
76998;BME280;65930;48.874;10.734;2024-02-15T08:10:52;96497.09;;;7.75;100.00
76998;BME280;65930;48.874;10.734;2024-02-15T08:13:22;96500.66;;;7.75;100.00
76998;BME280;65930;48.874;10.734;2024-02-15T08:15:57;96499.63;;;7.83;100.00
76998;BME280;65930;48.874;10.734;2024-02-15T08:18:28;96504.44;;;7.90;100.00
76998;BME280;65930;48.874;10.734;2024-02-15T08:20:57;96500.56;;;7.94;100.00
76998;BME280;65930;48.874;10.734;2024-02-15T08:23:25;96502.19;;;7.99;100.00
76998;BME280;65930;48.874;10.734;2024-02-15T08:25:54;96503.47;;;8.05;100.00
76998;BME280;65930;48.874;10.734;2024-02-15T08:28:21;96498.75;;;8.06;100.00
76998;BME280;65930;48.874;10.734;2024-02-15T08:30:55;96486.22;;;8.12;100.00
76998;BME280;65930;48.874;10.734;2024-02-15T08:33:25;96491.91;;;8.26;100.00
76998;BME280;65930;48.874;10.734;2024-02-15T08:35:55;96481.31;;;8.28;100.00
76998;BME280;65930;48.874;10.734;2024-02-15T08:38:24;96480.44;;;8.20;100.00
76998;BME280;65930;48.874;10.734;2024-02-15T08:40:52;96475.69;;;8.21;100.00
76998;BME280;65930;48.874;10.734;2024-02-15T08:43:20;96475.34;;;8.26;100.00
76998;BME280;65930;48.874;10.734;2024-02-15T08:45:48;96474.28;;;8.30;100.00
76998;BME280;65930;48.874;10.734;2024-02-15T08:48:17;96467.34;;;8.44;100.00
76998;BME280;65930;48.874;10.734;2024-02-15T08:50:46;96469.00;;;8.52;100.00
76998;BME280;65930;48.874;10.734;2024-02-15T08:53:14;96464.34;;;8.59;100.00
76998;BME280;65930;48.874;10.734;2024-02-15T08:55:45;96468.22;;;8.88;100.00
76998;BME280;65930;48.874;10.734;2024-02-15T08:58:13;96459.41;;;9.19;100.00
76998;BME280;65930;48.874;10.734;2024-02-15T09:00:41;96464.78;;;9.42;100.00
76998;BME280;65930;48.874;10.734;2024-02-15T09:03:11;96464.03;;;9.52;100.00
76998;BME280;65930;48.874;10.734;2024-02-15T09:05:40;96449.56;;;9.69;100.00
76998;BME280;65930;48.874;10.734;2024-02-15T09:08:09;96455.13;;;9.80;100.00
76998;BME280;65930;48.874;10.734;2024-02-15T09:10:38;96447.28;;;9.86;100.00
76998;BME280;65930;48.874;10.734;2024-02-15T09:13:06;96452.81;;;9.86;100.00
76998;BME280;65930;48.874;10.734;2024-02-15T09:15:34;96450.38;;;9.73;100.00
76998;BME280;65930;48.874;10.734;2024-02-15T09:18:03;96444.88;;;9.81;100.00
76998;BME280;65930;48.874;10.734;2024-02-15T09:20:32;96444.19;;;9.98;100.00
76998;BME280;65930;48.874;10.734;2024-02-15T09:23:00;96444.59;;;10.00;100.00
76998;BME280;65930;48.874;10.734;2024-02-15T09:25:38;96440.28;;;10.06;100.00
76998;BME280;65930;48.874;10.734;2024-02-15T09:28:06;96438.84;;;10.33;100.00
76998;BME280;65930;48.874;10.734;2024-02-15T09:30:34;96443.47;;;10.11;100.00
76998;BME280;65930;48.874;10.734;2024-02-15T09:33:02;96436.50;;;10.35;100.00
76998;BME280;65930;48.874;10.734;2024-02-15T09:35:32;96429.84;;;10.57;100.00
76998;BME280;65930;48.874;10.734;2024-02-15T09:38:00;96427.13;;;10.68;100.00
76998;BME280;65930;48.874;10.734;2024-02-15T09:40:28;96430.25;;;10.70;98.87
76998;BME280;65930;48.874;10.734;2024-02-15T09:42:58;96420.81;;;10.82;98.38
76998;BME280;65930;48.874;10.734;2024-02-15T09:45:27;96423.97;;;10.98;97.79
76998;BME280;65930;48.874;10.734;2024-02-15T09:48:02;96422.41;;;11.11;95.89
76998;BME280;65930;48.874;10.734;2024-02-15T09:50:35;96414.91;;;11.36;94.87
76998;BME280;65930;48.874;10.734;2024-02-15T09:53:06;96407.38;;;11.33;96.13
76998;BME280;65930;48.874;10.734;2024-02-15T09:55:35;96407.38;;;11.51;95.56
76998;BME280;65930;48.874;10.734;2024-02-15T09:58:05;96415.25;;;11.67;94.29
76998;BME280;65930;48.874;10.734;2024-02-15T10:00:33;96419.25;;;11.76;94.36
76998;BME280;65930;48.874;10.734;2024-02-15T10:03:06;96408.94;;;11.48;92.36
76998;BME280;65930;48.874;10.734;2024-02-15T10:05:35;96407.38;;;11.51;91.81
76998;BME280;65930;48.874;10.734;2024-02-15T10:08:04;96404.16;;;11.63;94.36
76998;BME280;65930;48.874;10.734;2024-02-15T10:10:34;96406.94;;;11.67;93.36
76998;BME280;65930;48.874;10.734;2024-02-15T10:13:02;96412.50;;;11.70;89.60
76998;BME280;65930;48.874;10.734;2024-02-15T10:15:34;96410.13;;;11.69;91.15
76998;BME280;65930;48.874;10.734;2024-02-15T10:18:04;96409.72;;;11.88;92.48
76998;BME280;65930;48.874;10.734;2024-02-15T10:20:35;96410.81;;;12.15;91.37
76998;BME280;65930;48.874;10.734;2024-02-15T10:23:14;96412.78;;;12.25;89.79
76998;BME280;65930;48.874;10.734;2024-02-15T10:25:45;96400.88;;;12.18;87.20
76998;BME280;65930;48.874;10.734;2024-02-15T10:28:20;96410.06;;;12.04;84.34
76998;BME280;65930;48.874;10.734;2024-02-15T10:30:51;96411.53;;;12.33;86.70
76998;BME280;65930;48.874;10.734;2024-02-15T10:33:26;96405.16;;;12.44;84.03
76998;BME280;65930;48.874;10.734;2024-02-15T10:36:05;96409.91;;;12.50;80.35
76998;BME280;65930;48.874;10.734;2024-02-15T10:38:33;96404.25;;;12.68;82.23
76998;BME280;65930;48.874;10.734;2024-02-15T10:41:07;96397.16;;;12.53;83.16
76998;BME280;65930;48.874;10.734;2024-02-15T10:43:36;96403.19;;;12.41;78.72
76998;BME280;65930;48.874;10.734;2024-02-15T10:46:06;96403.66;;;12.21;79.50
76998;BME280;65930;48.874;10.734;2024-02-15T10:48:40;96393.00;;;12.06;78.39
76998;BME280;65930;48.874;10.734;2024-02-15T10:51:14;96406.81;;;12.23;76.91
76998;BME280;65930;48.874;10.734;2024-02-15T10:53:57;96405.31;;;11.98;75.53
76998;BME280;65930;48.874;10.734;2024-02-15T10:56:27;96388.63;;;12.05;78.77
76998;BME280;65930;48.874;10.734;2024-02-15T10:59:10;96386.69;;;11.98;77.77
76998;BME280;65930;48.874;10.734;2024-02-15T11:01:45;96378.69;;;12.14;80.40
76998;BME280;65930;48.874;10.734;2024-02-15T11:04:20;96377.34;;;12.47;80.62
76998;BME280;65930;48.874;10.734;2024-02-15T11:06:50;96371.84;;;12.36;78.61
76998;BME280;65930;48.874;10.734;2024-02-15T11:09:19;96369.88;;;12.33;79.84
76998;BME280;65930;48.874;10.734;2024-02-15T11:11:49;96361.50;;;12.37;80.71
76998;BME280;65930;48.874;10.734;2024-02-15T11:14:26;96364.28;;;12.37;81.70
76998;BME280;65930;48.874;10.734;2024-02-15T11:16:57;96353.59;;;12.35;79.53
76998;BME280;65930;48.874;10.734;2024-02-15T11:19:45;96350.06;;;12.31;81.07
76998;BME280;65930;48.874;10.734;2024-02-15T11:22:15;96346.13;;;12.25;82.69
76998;BME280;65930;48.874;10.734;2024-02-15T11:24:48;96341.66;;;12.42;81.69
76998;BME280;65930;48.874;10.734;2024-02-15T11:27:26;96342.03;;;12.48;80.66
76998;BME280;65930;48.874;10.734;2024-02-15T11:29:55;96343.59;;;12.49;77.95
76998;BME280;65930;48.874;10.734;2024-02-15T11:32:41;96337.31;;;12.38;78.39
76998;BME280;65930;48.874;10.734;2024-02-15T11:35:13;96337.81;;;12.15;79.04
76998;BME280;65930;48.874;10.734;2024-02-15T11:37:54;96329.03;;;12.23;78.88
76998;BME280;65930;48.874;10.734;2024-02-15T11:40:26;96326.16;;;12.41;78.82
76998;BME280;65930;48.874;10.734;2024-02-15T11:42:56;96330.13;;;12.47;77.48
76998;BME280;65930;48.874;10.734;2024-02-15T11:45:27;96334.16;;;12.35;80.41
76998;BME280;65930;48.874;10.734;2024-02-15T11:48:01;96328.66;;;12.18;77.42
76998;BME280;65930;48.874;10.734;2024-02-15T11:50:34;96325.47;;;12.26;79.17
76998;BME280;65930;48.874;10.734;2024-02-15T11:53:04;96322.25;;;12.35;77.17
76998;BME280;65930;48.874;10.734;2024-02-15T11:55:37;96316.56;;;12.56;76.78
76998;BME280;65930;48.874;10.734;2024-02-15T11:58:07;96307.00;;;12.64;75.29
76998;BME280;65930;48.874;10.734;2024-02-15T12:00:45;96309.09;;;12.43;74.94
76998;BME280;65930;48.874;10.734;2024-02-15T12:03:52;96301.59;;;12.40;75.33
76998;BME280;65930;48.874;10.734;2024-02-15T12:06:38;96297.28;;;12.83;75.47
76998;BME280;65930;48.874;10.734;2024-02-15T12:09:24;96288.59;;;12.81;75.27
76998;BME280;65930;48.874;10.734;2024-02-15T12:12:09;96288.50;;;12.92;74.53
76998;BME280;65930;48.874;10.734;2024-02-15T12:14:58;96287.97;;;13.11;73.36
76998;BME280;65930;48.874;10.734;2024-02-15T12:17:44;96289.00;;;13.28;73.37
76998;BME280;65930;48.874;10.734;2024-02-15T12:20:32;96288.63;;;12.77;71.49
76998;BME280;65930;48.874;10.734;2024-02-15T12:23:02;96287.75;;;12.84;70.18
76998;BME280;65930;48.874;10.734;2024-02-15T12:25:34;96283.44;;;12.79;72.82
76998;BME280;65930;48.874;10.734;2024-02-15T12:28:03;96283.56;;;12.62;72.63
76998;BME280;65930;48.874;10.734;2024-02-15T12:30:34;96282.88;;;12.99;71.53
76998;BME280;65930;48.874;10.734;2024-02-15T12:33:12;96283.44;;;13.28;70.47
76998;BME280;65930;48.874;10.734;2024-02-15T12:35:47;96279.81;;;13.34;71.49
76998;BME280;65930;48.874;10.734;2024-02-15T12:38:17;96279.38;;;13.36;70.66
76998;BME280;65930;48.874;10.734;2024-02-15T12:40:45;96270.97;;;13.43;70.91
76998;BME280;65930;48.874;10.734;2024-02-15T12:43:15;96270.91;;;13.05;70.51
76998;BME280;65930;48.874;10.734;2024-02-15T12:45:43;96270.09;;;13.08;71.40
76998;BME280;65930;48.874;10.734;2024-02-15T12:48:11;96277.16;;;13.20;70.80
76998;BME280;65930;48.874;10.734;2024-02-15T12:50:42;96262.25;;;12.96;72.02
76998;BME280;65930;48.874;10.734;2024-02-15T12:53:11;96267.19;;;12.74;72.21
76998;BME280;65930;48.874;10.734;2024-02-15T12:55:40;96267.31;;;13.08;71.37
76998;BME280;65930;48.874;10.734;2024-02-15T12:58:13;96265.81;;;13.41;69.94
76998;BME280;65930;48.874;10.734;2024-02-15T13:00:42;96268.34;;;13.29;72.10
76998;BME280;65930;48.874;10.734;2024-02-15T13:03:11;96263.72;;;13.15;68.94
76998;BME280;65930;48.874;10.734;2024-02-15T13:05:42;96269.38;;;13.42;70.23